sensor_id;sensor_type;location;lat;lon;timestamp;temperature;humidity
5200;DHT22;2619;47.868;11.892;2022-11-15T00:00:51;0.70;99.90
5200;DHT22;2619;47.868;11.892;2022-11-15T00:03:18;0.60;99.90
5200;DHT22;2619;47.868;11.892;2022-11-15T00:05:45;0.50;99.90
5200;DHT22;2619;47.868;11.892;2022-11-15T00:08:11;0.50;99.90
5200;DHT22;2619;47.868;11.892;2022-11-15T00:10:37;0.50;99.90
5200;DHT22;2619;47.868;11.892;2022-11-15T00:13:12;0.50;99.90
5200;DHT22;2619;47.868;11.892;2022-11-15T00:15:39;0.50;99.90
5200;DHT22;2619;47.868;11.892;2022-11-15T00:18:10;0.50;99.90
5200;DHT22;2619;47.868;11.892;2022-11-15T00:20:37;0.50;99.90
5200;DHT22;2619;47.868;11.892;2022-11-15T00:23:06;0.50;99.90
5200;DHT22;2619;47.868;11.892;2022-11-15T00:25:32;0.40;99.90
5200;DHT22;2619;47.868;11.892;2022-11-15T00:27:58;0.40;99.90
5200;DHT22;2619;47.868;11.892;2022-11-15T00:30:25;0.40;99.90
5200;DHT22;2619;47.868;11.892;2022-11-15T00:32:51;0.30;99.90
5200;DHT22;2619;47.868;11.892;2022-11-15T00:35:17;0.30;99.90
5200;DHT22;2619;47.868;11.892;2022-11-15T00:37:43;0.30;99.90
5200;DHT22;2619;47.868;11.892;2022-11-15T00:40:09;0.40;99.90
5200;DHT22;2619;47.868;11.892;2022-11-15T00:42:35;0.30;99.90
5200;DHT22;2619;47.868;11.892;2022-11-15T00:45:00;0.30;99.90
5200;DHT22;2619;47.868;11.892;2022-11-15T00:47:26;0.20;99.90
5200;DHT22;2619;47.868;11.892;2022-11-15T00:49:51;0.20;99.90
5200;DHT22;2619;47.868;11.892;2022-11-15T00:52:17;0.30;99.90
5200;DHT22;2619;47.868;11.892;2022-11-15T00:54:42;0.30;99.90
5200;DHT22;2619;47.868;11.892;2022-11-15T00:57:08;0.30;99.90
5200;DHT22;2619;47.868;11.892;2022-11-15T00:59:34;0.40;99.90
5200;DHT22;2619;47.868;11.892;2022-11-15T01:01:59;0.50;99.90
5200;DHT22;2619;47.868;11.892;2022-11-15T01:04:25;0.50;99.90
5200;DHT22;2619;47.868;11.892;2022-11-15T01:06:50;0.50;99.90
5200;DHT22;2619;47.868;11.892;2022-11-15T01:09:16;0.60;99.90
5200;DHT22;2619;47.868;11.892;2022-11-15T01:11:41;0.60;99.90
5200;DHT22;2619;47.868;11.892;2022-11-15T01:14:07;0.50;99.90
5200;DHT22;2619;47.868;11.892;2022-11-15T01:16:33;0.50;99.90
5200;DHT22;2619;47.868;11.892;2022-11-15T01:18:59;0.40;99.90
5200;DHT22;2619;47.868;11.892;2022-11-15T01:21:24;0.40;99.90
5200;DHT22;2619;47.868;11.892;2022-11-15T01:23:54;0.50;99.90
5200;DHT22;2619;47.868;11.892;2022-11-15T01:26:21;0.50;99.90
5200;DHT22;2619;47.868;11.892;2022-11-15T01:28:46;0.60;99.90
5200;DHT22;2619;47.868;11.892;2022-11-15T01:31:15;0.60;99.90
5200;DHT22;2619;47.868;11.892;2022-11-15T01:33:41;0.60;99.90
5200;DHT22;2619;47.868;11.892;2022-11-15T01:36:13;0.50;99.90
5200;DHT22;2619;47.868;11.892;2022-11-15T01:38:39;0.40;99.90
5200;DHT22;2619;47.868;11.892;2022-11-15T01:41:05;0.40;99.90
5200;DHT22;2619;47.868;11.892;2022-11-15T01:43:34;0.20;99.90
5200;DHT22;2619;47.868;11.892;2022-11-15T01:48:37;0.20;99.90
5200;DHT22;2619;47.868;11.892;2022-11-15T01:51:08;0.20;99.90
5200;DHT22;2619;47.868;11.892;2022-11-15T01:53:37;0.10;99.90
5200;DHT22;2619;47.868;11.892;2022-11-15T01:56:06;0.00;99.90
5200;DHT22;2619;47.868;11.892;2022-11-15T01:58:33;0.10;99.90
5200;DHT22;2619;47.868;11.892;2022-11-15T02:00:59;0.10;99.90
5200;DHT22;2619;47.868;11.892;2022-11-15T02:03:31;0.10;99.90
5200;DHT22;2619;47.868;11.892;2022-11-15T02:05:58;0.20;99.90
5200;DHT22;2619;47.868;11.892;2022-11-15T02:08:24;0.30;99.90
5200;DHT22;2619;47.868;11.892;2022-11-15T02:10:50;0.20;99.90
5200;DHT22;2619;47.868;11.892;2022-11-15T02:13:16;0.10;99.90
5200;DHT22;2619;47.868;11.892;2022-11-15T02:18:35;-0.10;99.90
5200;DHT22;2619;47.868;11.892;2022-11-15T02:21:31;-0.10;99.90
5200;DHT22;2619;47.868;11.892;2022-11-15T02:27:09;-0.10;99.90
5200;DHT22;2619;47.868;11.892;2022-11-15T02:30:02;-0.20;99.90
5200;DHT22;2619;47.868;11.892;2022-11-15T02:32:37;-0.20;99.90
5200;DHT22;2619;47.868;11.892;2022-11-15T02:35:29;-0.20;99.90
5200;DHT22;2619;47.868;11.892;2022-11-15T02:41:16;-0.20;99.90
5200;DHT22;2619;47.868;11.892;2022-11-15T02:43:31;-0.20;99.90
5200;DHT22;2619;47.868;11.892;2022-11-15T02:49:35;-0.30;99.90
5200;DHT22;2619;47.868;11.892;2022-11-15T02:52:02;-0.40;99.90
5200;DHT22;2619;47.868;11.892;2022-11-15T02:54:33;-0.40;99.90
5200;DHT22;2619;47.868;11.892;2022-11-15T02:57:16;-0.40;99.90
5200;DHT22;2619;47.868;11.892;2022-11-15T03:00:00;-0.40;99.90
5200;DHT22;2619;47.868;11.892;2022-11-15T03:02:59;-0.50;99.90
5200;DHT22;2619;47.868;11.892;2022-11-15T03:05:37;-0.60;99.90
5200;DHT22;2619;47.868;11.892;2022-11-15T03:11:10;-0.80;99.90
5200;DHT22;2619;47.868;11.892;2022-11-15T03:13:42;-0.70;99.90
5200;DHT22;2619;47.868;11.892;2022-11-15T03:16:26;-0.60;99.90
5200;DHT22;2619;47.868;11.892;2022-11-15T03:18:59;-0.70;99.90
5200;DHT22;2619;47.868;11.892;2022-11-15T03:21:28;-0.60;99.90
5200;DHT22;2619;47.868;11.892;2022-11-15T03:23:56;-0.60;99.90
5200;DHT22;2619;47.868;11.892;2022-11-15T03:26:24;-0.60;99.90
5200;DHT22;2619;47.868;11.892;2022-11-15T03:28:53;-0.60;99.90
5200;DHT22;2619;47.868;11.892;2022-11-15T03:31:21;-0.50;99.90
5200;DHT22;2619;47.868;11.892;2022-11-15T03:34:09;-0.60;99.90
5200;DHT22;2619;47.868;11.892;2022-11-15T03:36:38;-0.70;99.90
5200;DHT22;2619;47.868;11.892;2022-11-15T03:39:06;-0.70;99.90
5200;DHT22;2619;47.868;11.892;2022-11-15T03:41:52;-0.60;99.90
5200;DHT22;2619;47.868;11.892;2022-11-15T03:44:35;-0.60;99.90
5200;DHT22;2619;47.868;11.892;2022-11-15T03:49:42;-0.60;99.90
5200;DHT22;2619;47.868;11.892;2022-11-15T03:52:10;-0.40;99.90
5200;DHT22;2619;47.868;11.892;2022-11-15T03:54:36;-0.50;99.90
5200;DHT22;2619;47.868;11.892;2022-11-15T03:57:01;-0.60;99.90
5200;DHT22;2619;47.868;11.892;2022-11-15T03:59:27;-0.60;99.90
5200;DHT22;2619;47.868;11.892;2022-11-15T04:01:53;-0.70;99.90
5200;DHT22;2619;47.868;11.892;2022-11-15T04:04:18;-0.70;99.90
5200;DHT22;2619;47.868;11.892;2022-11-15T04:06:44;-0.60;99.90
5200;DHT22;2619;47.868;11.892;2022-11-15T04:09:09;-0.40;99.90
5200;DHT22;2619;47.868;11.892;2022-11-15T04:11:35;-0.40;99.90
5200;DHT22;2619;47.868;11.892;2022-11-15T04:14:01;-0.50;99.90
5200;DHT22;2619;47.868;11.892;2022-11-15T04:16:26;-0.60;99.90
5200;DHT22;2619;47.868;11.892;2022-11-15T04:18:52;-0.70;99.90
5200;DHT22;2619;47.868;11.892;2022-11-15T04:21:37;-0.70;99.90
5200;DHT22;2619;47.868;11.892;2022-11-15T04:24:21;-0.70;99.90
5200;DHT22;2619;47.868;11.892;2022-11-15T04:26:47;-0.80;99.90
5200;DHT22;2619;47.868;11.892;2022-11-15T04:29:12;-0.80;99.90
5200;DHT22;2619;47.868;11.892;2022-11-15T04:31:56;-0.90;99.90
5200;DHT22;2619;47.868;11.892;2022-11-15T04:34:22;-0.90;99.90
5200;DHT22;2619;47.868;11.892;2022-11-15T04:36:48;-0.80;99.90
5200;DHT22;2619;47.868;11.892;2022-11-15T04:39:32;-0.70;99.90
5200;DHT22;2619;47.868;11.892;2022-11-15T04:41:57;-0.70;99.90
5200;DHT22;2619;47.868;11.892;2022-11-15T04:44:23;-0.80;99.90
5200;DHT22;2619;47.868;11.892;2022-11-15T04:46:48;-0.80;99.90
5200;DHT22;2619;47.868;11.892;2022-11-15T04:49:14;-0.80;99.90
5200;DHT22;2619;47.868;11.892;2022-11-15T04:51:40;-0.90;99.90
5200;DHT22;2619;47.868;11.892;2022-11-15T04:54:05;-1.00;99.90
5200;DHT22;2619;47.868;11.892;2022-11-15T04:56:31;-0.90;99.90
5200;DHT22;2619;47.868;11.892;2022-11-15T04:58:56;-0.90;99.90
5200;DHT22;2619;47.868;11.892;2022-11-15T05:01:22;-0.90;99.90
5200;DHT22;2619;47.868;11.892;2022-11-15T05:03:48;-0.90;99.90
5200;DHT22;2619;47.868;11.892;2022-11-15T05:06:32;-1.00;99.90
5200;DHT22;2619;47.868;11.892;2022-11-15T05:08:57;-1.00;99.90
5200;DHT22;2619;47.868;11.892;2022-11-15T05:11:23;-1.00;99.90
5200;DHT22;2619;47.868;11.892;2022-11-15T05:13:49;-1.00;99.90
5200;DHT22;2619;47.868;11.892;2022-11-15T05:16:14;-1.00;99.90
5200;DHT22;2619;47.868;11.892;2022-11-15T05:18:40;-1.00;99.90
5200;DHT22;2619;47.868;11.892;2022-11-15T05:21:13;-1.00;99.90
5200;DHT22;2619;47.868;11.892;2022-11-15T05:23:40;-0.90;99.90
5200;DHT22;2619;47.868;11.892;2022-11-15T05:26:07;-0.90;99.90
5200;DHT22;2619;47.868;11.892;2022-11-15T05:28:33;-1.00;99.90
5200;DHT22;2619;47.868;11.892;2022-11-15T05:33:28;-1.00;99.90
5200;DHT22;2619;47.868;11.892;2022-11-15T05:35:58;-1.10;99.90
5200;DHT22;2619;47.868;11.892;2022-11-15T05:38:25;-1.10;99.90
5200;DHT22;2619;47.868;11.892;2022-11-15T05:40:51;-1.00;99.90
5200;DHT22;2619;47.868;11.892;2022-11-15T05:43:17;-0.90;99.90
5200;DHT22;2619;47.868;11.892;2022-11-15T05:45:42;-0.80;99.90
5200;DHT22;2619;47.868;11.892;2022-11-15T05:48:09;-0.80;99.90
5200;DHT22;2619;47.868;11.892;2022-11-15T05:50:36;-0.80;99.90
5200;DHT22;2619;47.868;11.892;2022-11-15T05:53:03;-0.90;99.90
5200;DHT22;2619;47.868;11.892;2022-11-15T05:55:30;-0.90;99.90
5200;DHT22;2619;47.868;11.892;2022-11-15T05:57:56;-1.00;99.90
5200;DHT22;2619;47.868;11.892;2022-11-15T06:00:22;-1.00;99.90
5200;DHT22;2619;47.868;11.892;2022-11-15T06:02:47;-1.10;99.90
5200;DHT22;2619;47.868;11.892;2022-11-15T06:05:13;-1.10;99.90
5200;DHT22;2619;47.868;11.892;2022-11-15T06:07:38;-1.00;99.90
5200;DHT22;2619;47.868;11.892;2022-11-15T06:10:04;-1.00;99.90
5200;DHT22;2619;47.868;11.892;2022-11-15T06:12:30;-1.00;99.90
5200;DHT22;2619;47.868;11.892;2022-11-15T06:14:55;-1.00;99.90
5200;DHT22;2619;47.868;11.892;2022-11-15T06:17:21;-1.10;99.90
5200;DHT22;2619;47.868;11.892;2022-11-15T06:19:47;-1.00;99.90
5200;DHT22;2619;47.868;11.892;2022-11-15T06:22:12;-1.00;99.90
5200;DHT22;2619;47.868;11.892;2022-11-15T06:24:38;-0.90;99.90
5200;DHT22;2619;47.868;11.892;2022-11-15T06:27:03;-0.80;99.90
5200;DHT22;2619;47.868;11.892;2022-11-15T06:29:29;-0.90;99.90
5200;DHT22;2619;47.868;11.892;2022-11-15T06:31:54;-0.90;99.90
5200;DHT22;2619;47.868;11.892;2022-11-15T06:34:20;-0.90;99.90
5200;DHT22;2619;47.868;11.892;2022-11-15T06:36:45;-0.80;99.90
5200;DHT22;2619;47.868;11.892;2022-11-15T06:39:11;-0.60;99.90
5200;DHT22;2619;47.868;11.892;2022-11-15T06:41:37;-0.50;99.90
5200;DHT22;2619;47.868;11.892;2022-11-15T06:44:02;-0.40;99.90
5200;DHT22;2619;47.868;11.892;2022-11-15T06:46:28;-0.40;99.90
5200;DHT22;2619;47.868;11.892;2022-11-15T06:48:54;-0.50;99.90
5200;DHT22;2619;47.868;11.892;2022-11-15T06:51:20;-0.40;99.90
5200;DHT22;2619;47.868;11.892;2022-11-15T06:53:46;-0.30;99.90
5200;DHT22;2619;47.868;11.892;2022-11-15T06:56:11;-0.20;99.90
5200;DHT22;2619;47.868;11.892;2022-11-15T06:58:37;-0.20;99.90
5200;DHT22;2619;47.868;11.892;2022-11-15T07:01:05;-0.20;99.90
5200;DHT22;2619;47.868;11.892;2022-11-15T07:03:31;-0.10;99.90
5200;DHT22;2619;47.868;11.892;2022-11-15T07:05:57;0.00;99.90
5200;DHT22;2619;47.868;11.892;2022-11-15T07:08:23;0.10;99.90
5200;DHT22;2619;47.868;11.892;2022-11-15T07:10:49;0.20;99.90
5200;DHT22;2619;47.868;11.892;2022-11-15T07:13:15;0.30;99.90
5200;DHT22;2619;47.868;11.892;2022-11-15T07:15:41;0.40;99.90
5200;DHT22;2619;47.868;11.892;2022-11-15T07:18:06;0.50;99.90
5200;DHT22;2619;47.868;11.892;2022-11-15T07:20:32;0.40;99.90
5200;DHT22;2619;47.868;11.892;2022-11-15T07:23:02;0.40;99.90
5200;DHT22;2619;47.868;11.892;2022-11-15T07:25:28;0.40;99.90
5200;DHT22;2619;47.868;11.892;2022-11-15T07:27:57;0.40;99.90
5200;DHT22;2619;47.868;11.892;2022-11-15T07:30:24;0.50;99.90
5200;DHT22;2619;47.868;11.892;2022-11-15T07:32:57;0.50;99.90
5200;DHT22;2619;47.868;11.892;2022-11-15T07:35:23;0.60;99.90
5200;DHT22;2619;47.868;11.892;2022-11-15T07:37:59;0.60;99.90
5200;DHT22;2619;47.868;11.892;2022-11-15T07:40:29;0.80;99.90
5200;DHT22;2619;47.868;11.892;2022-11-15T07:43:03;0.90;99.90
5200;DHT22;2619;47.868;11.892;2022-11-15T07:45:29;1.00;99.90
5200;DHT22;2619;47.868;11.892;2022-11-15T07:47:55;1.00;99.90
5200;DHT22;2619;47.868;11.892;2022-11-15T07:50:22;1.10;99.90
5200;DHT22;2619;47.868;11.892;2022-11-15T07:52:56;1.20;99.90
5200;DHT22;2619;47.868;11.892;2022-11-15T07:55:23;1.30;99.90
5200;DHT22;2619;47.868;11.892;2022-11-15T07:57:49;1.40;99.90
5200;DHT22;2619;47.868;11.892;2022-11-15T08:00:15;1.50;99.90
5200;DHT22;2619;47.868;11.892;2022-11-15T08:02:41;1.60;99.90
5200;DHT22;2619;47.868;11.892;2022-11-15T08:05:07;1.80;99.90
5200;DHT22;2619;47.868;11.892;2022-11-15T08:07:33;1.90;99.90
5200;DHT22;2619;47.868;11.892;2022-11-15T08:09:59;1.90;99.90
5200;DHT22;2619;47.868;11.892;2022-11-15T08:12:27;2.00;99.90
5200;DHT22;2619;47.868;11.892;2022-11-15T08:14:54;2.10;99.90
5200;DHT22;2619;47.868;11.892;2022-11-15T08:17:20;2.30;99.90
5200;DHT22;2619;47.868;11.892;2022-11-15T08:19:46;2.40;99.90
5200;DHT22;2619;47.868;11.892;2022-11-15T08:22:11;2.50;99.90
5200;DHT22;2619;47.868;11.892;2022-11-15T08:24:37;2.50;99.90
5200;DHT22;2619;47.868;11.892;2022-11-15T08:27:03;2.70;99.90
5200;DHT22;2619;47.868;11.892;2022-11-15T08:29:28;2.80;99.90
5200;DHT22;2619;47.868;11.892;2022-11-15T08:31:55;2.90;99.90
5200;DHT22;2619;47.868;11.892;2022-11-15T08:34:21;3.00;99.90
5200;DHT22;2619;47.868;11.892;2022-11-15T08:36:47;3.20;99.90
5200;DHT22;2619;47.868;11.892;2022-11-15T08:39:13;3.30;99.90
5200;DHT22;2619;47.868;11.892;2022-11-15T08:41:38;3.50;99.90
5200;DHT22;2619;47.868;11.892;2022-11-15T08:44:04;3.70;99.90
5200;DHT22;2619;47.868;11.892;2022-11-15T08:46:30;3.90;99.90
5200;DHT22;2619;47.868;11.892;2022-11-15T08:48:56;4.00;99.90
5200;DHT22;2619;47.868;11.892;2022-11-15T08:51:21;4.20;99.90
5200;DHT22;2619;47.868;11.892;2022-11-15T08:53:47;4.30;99.90
5200;DHT22;2619;47.868;11.892;2022-11-15T08:56:14;4.50;99.90
5200;DHT22;2619;47.868;11.892;2022-11-15T08:58:40;4.70;99.90
5200;DHT22;2619;47.868;11.892;2022-11-15T09:01:06;4.80;99.90
5200;DHT22;2619;47.868;11.892;2022-11-15T09:03:31;5.00;99.90
5200;DHT22;2619;47.868;11.892;2022-11-15T09:05:59;5.10;99.90
5200;DHT22;2619;47.868;11.892;2022-11-15T09:08:26;5.20;99.90
5200;DHT22;2619;47.868;11.892;2022-11-15T09:10:54;5.30;99.90
5200;DHT22;2619;47.868;11.892;2022-11-15T09:13:19;5.40;99.90
5200;DHT22;2619;47.868;11.892;2022-11-15T09:15:45;5.50;99.90
5200;DHT22;2619;47.868;11.892;2022-11-15T09:18:10;5.60;99.90
5200;DHT22;2619;47.868;11.892;2022-11-15T09:20:36;5.80;99.90
5200;DHT22;2619;47.868;11.892;2022-11-15T09:23:03;5.90;99.90
5200;DHT22;2619;47.868;11.892;2022-11-15T09:25:29;6.00;99.90
5200;DHT22;2619;47.868;11.892;2022-11-15T09:27:55;6.00;99.90
5200;DHT22;2619;47.868;11.892;2022-11-15T09:30:21;6.10;99.90
5200;DHT22;2619;47.868;11.892;2022-11-15T09:32:47;6.20;99.90
5200;DHT22;2619;47.868;11.892;2022-11-15T09:35:12;6.40;99.90
5200;DHT22;2619;47.868;11.892;2022-11-15T09:37:38;6.50;99.90
5200;DHT22;2619;47.868;11.892;2022-11-15T09:40:04;6.60;99.90
5200;DHT22;2619;47.868;11.892;2022-11-15T09:45:31;6.70;99.90
5200;DHT22;2619;47.868;11.892;2022-11-15T09:50:58;7.00;99.90
5200;DHT22;2619;47.868;11.892;2022-11-15T09:53:34;7.10;99.90
5200;DHT22;2619;47.868;11.892;2022-11-15T09:56:03;7.20;99.90
5200;DHT22;2619;47.868;11.892;2022-11-15T10:01:47;7.40;99.90
5200;DHT22;2619;47.868;11.892;2022-11-15T10:04:16;7.50;99.90
5200;DHT22;2619;47.868;11.892;2022-11-15T10:09:53;7.70;99.90
5200;DHT22;2619;47.868;11.892;2022-11-15T10:12:21;7.70;99.90
5200;DHT22;2619;47.868;11.892;2022-11-15T10:14:49;7.90;99.90
5200;DHT22;2619;47.868;11.892;2022-11-15T10:18:08;8.00;99.90
5200;DHT22;2619;47.868;11.892;2022-11-15T10:20:27;8.10;99.90
5200;DHT22;2619;47.868;11.892;2022-11-15T10:22:56;8.20;99.90
5200;DHT22;2619;47.868;11.892;2022-11-15T10:25:26;8.30;99.90
5200;DHT22;2619;47.868;11.892;2022-11-15T10:28:25;8.40;99.90
5200;DHT22;2619;47.868;11.892;2022-11-15T10:30:50;8.50;99.90
5200;DHT22;2619;47.868;11.892;2022-11-15T10:33:32;8.60;99.90
5200;DHT22;2619;47.868;11.892;2022-11-15T10:36:17;8.60;99.90
5200;DHT22;2619;47.868;11.892;2022-11-15T10:41:21;8.80;99.90
5200;DHT22;2619;47.868;11.892;2022-11-15T10:46:44;8.80;99.90
5200;DHT22;2619;47.868;11.892;2022-11-15T10:49:22;8.90;99.90
5200;DHT22;2619;47.868;11.892;2022-11-15T10:51:51;9.00;99.90
5200;DHT22;2619;47.868;11.892;2022-11-15T10:56:59;9.20;99.90
5200;DHT22;2619;47.868;11.892;2022-11-15T10:59:33;9.30;99.90
5200;DHT22;2619;47.868;11.892;2022-11-15T11:02:00;9.30;99.90
5200;DHT22;2619;47.868;11.892;2022-11-15T11:04:26;9.50;99.90
5200;DHT22;2619;47.868;11.892;2022-11-15T11:06:57;9.60;99.90
5200;DHT22;2619;47.868;11.892;2022-11-15T11:09:31;9.70;99.90
5200;DHT22;2619;47.868;11.892;2022-11-15T11:11:58;9.70;99.90
5200;DHT22;2619;47.868;11.892;2022-11-15T11:14:35;9.80;99.90
5200;DHT22;2619;47.868;11.892;2022-11-15T11:20:06;9.80;99.90
5200;DHT22;2619;47.868;11.892;2022-11-15T11:22:53;9.90;99.90
5200;DHT22;2619;47.868;11.892;2022-11-15T11:30:51;10.10;99.90
5200;DHT22;2619;47.868;11.892;2022-11-15T11:33:44;10.20;99.90
5200;DHT22;2619;47.868;11.892;2022-11-15T11:45:15;10.40;99.90
5200;DHT22;2619;47.868;11.892;2022-11-15T11:50:28;10.40;99.90
5200;DHT22;2619;47.868;11.892;2022-11-15T11:53:11;10.50;99.90
5200;DHT22;2619;47.868;11.892;2022-11-15T11:55:43;10.50;99.90
5200;DHT22;2619;47.868;11.892;2022-11-15T11:58:35;10.60;99.90
5200;DHT22;2619;47.868;11.892;2022-11-15T12:01:24;10.70;99.90
5200;DHT22;2619;47.868;11.892;2022-11-15T12:04:16;10.70;99.90
5200;DHT22;2619;47.868;11.892;2022-11-15T12:06:51;10.80;99.90
5200;DHT22;2619;47.868;11.892;2022-11-15T12:09:58;10.80;99.90
5200;DHT22;2619;47.868;11.892;2022-11-15T12:12:35;10.80;99.90
5200;DHT22;2619;47.868;11.892;2022-11-15T12:15:30;10.80;99.90
5200;DHT22;2619;47.868;11.892;2022-11-15T12:17:57;10.90;99.90
5200;DHT22;2619;47.868;11.892;2022-11-15T12:20:27;11.00;99.90
5200;DHT22;2619;47.868;11.892;2022-11-15T12:26:02;11.10;99.90
5200;DHT22;2619;47.868;11.892;2022-11-15T12:31:38;11.20;99.90
5200;DHT22;2619;47.868;11.892;2022-11-15T12:36:46;11.10;99.90
5200;DHT22;2619;47.868;11.892;2022-11-15T12:39:13;11.10;99.90
5200;DHT22;2619;47.868;11.892;2022-11-15T12:41:41;11.10;99.90
5200;DHT22;2619;47.868;11.892;2022-11-15T13:04:47;10.60;99.90
5200;DHT22;2619;47.868;11.892;2022-11-15T13:10:00;10.50;99.90
5200;DHT22;2619;47.868;11.892;2022-11-15T13:17:44;10.40;99.90
5200;DHT22;2619;47.868;11.892;2022-11-15T13:22:58;10.30;99.90
5200;DHT22;2619;47.868;11.892;2022-11-15T13:30:51;10.30;99.90
5200;DHT22;2619;47.868;11.892;2022-11-15T13:33:33;10.30;99.90
5200;DHT22;2619;47.868;11.892;2022-11-15T13:36:27;10.20;99.90
5200;DHT22;2619;47.868;11.892;2022-11-15T13:39:12;10.20;99.90
5200;DHT22;2619;47.868;11.892;2022-11-15T13:41:48;10.20;99.90
5200;DHT22;2619;47.868;11.892;2022-11-15T13:44:33;10.20;99.90
5200;DHT22;2619;47.868;11.892;2022-11-15T13:47:12;10.20;99.90
5200;DHT22;2619;47.868;11.892;2022-11-15T13:49:39;10.10;99.90
5200;DHT22;2619;47.868;11.892;2022-11-15T13:52:07;10.10;99.90
5200;DHT22;2619;47.868;11.892;2022-11-15T13:55:05;10.00;99.90
5200;DHT22;2619;47.868;11.892;2022-11-15T13:57:43;10.00;99.90
5200;DHT22;2619;47.868;11.892;2022-11-15T14:02:50;9.80;99.90
5200;DHT22;2619;47.868;11.892;2022-11-15T14:05:22;9.70;99.90
5200;DHT22;2619;47.868;11.892;2022-11-15T14:08:02;9.70;99.90
5200;DHT22;2619;47.868;11.892;2022-11-15T14:10:31;9.50;99.90
5200;DHT22;2619;47.868;11.892;2022-11-15T14:12:58;9.40;99.90
5200;DHT22;2619;47.868;11.892;2022-11-15T14:15:39;9.30;99.90
5200;DHT22;2619;47.868;11.892;2022-11-15T14:18:06;9.20;99.90
5200;DHT22;2619;47.868;11.892;2022-11-15T14:20:35;9.00;99.90
5200;DHT22;2619;47.868;11.892;2022-11-15T14:23:03;9.00;99.90
5200;DHT22;2619;47.868;11.892;2022-11-15T14:25:31;8.90;99.90
5200;DHT22;2619;47.868;11.892;2022-11-15T14:30:46;8.70;99.90
5200;DHT22;2619;47.868;11.892;2022-11-15T14:33:30;8.60;99.90
5200;DHT22;2619;47.868;11.892;2022-11-15T14:36:02;8.50;99.90
5200;DHT22;2619;47.868;11.892;2022-11-15T14:38:27;8.40;99.90
5200;DHT22;2619;47.868;11.892;2022-11-15T14:40:54;8.40;99.90
5200;DHT22;2619;47.868;11.892;2022-11-15T14:43:21;8.30;99.90
5200;DHT22;2619;47.868;11.892;2022-11-15T14:45:47;8.30;99.90
5200;DHT22;2619;47.868;11.892;2022-11-15T14:48:13;8.30;99.90
5200;DHT22;2619;47.868;11.892;2022-11-15T14:50:38;8.20;99.90
5200;DHT22;2619;47.868;11.892;2022-11-15T14:53:04;8.30;99.90
5200;DHT22;2619;47.868;11.892;2022-11-15T14:55:32;8.30;99.90
5200;DHT22;2619;47.868;11.892;2022-11-15T14:58:00;8.30;99.90
5200;DHT22;2619;47.868;11.892;2022-11-15T15:00:29;8.20;99.90
5200;DHT22;2619;47.868;11.892;2022-11-15T15:02:54;8.20;99.90
5200;DHT22;2619;47.868;11.892;2022-11-15T15:05:27;8.20;99.90
5200;DHT22;2619;47.868;11.892;2022-11-15T15:07:54;8.20;99.90
5200;DHT22;2619;47.868;11.892;2022-11-15T15:10:20;8.20;99.90
5200;DHT22;2619;47.868;11.892;2022-11-15T15:12:46;8.30;99.90
5200;DHT22;2619;47.868;11.892;2022-11-15T15:15:15;8.30;99.90
5200;DHT22;2619;47.868;11.892;2022-11-15T15:17:42;8.20;99.90
5200;DHT22;2619;47.868;11.892;2022-11-15T15:20:08;8.20;99.90
5200;DHT22;2619;47.868;11.892;2022-11-15T15:22:34;8.20;99.90
5200;DHT22;2619;47.868;11.892;2022-11-15T15:25:00;8.10;99.90
5200;DHT22;2619;47.868;11.892;2022-11-15T15:27:25;8.20;99.90
5200;DHT22;2619;47.868;11.892;2022-11-15T15:29:51;8.20;99.90
5200;DHT22;2619;47.868;11.892;2022-11-15T15:32:16;8.10;99.90
5200;DHT22;2619;47.868;11.892;2022-11-15T15:34:42;8.00;99.90
5200;DHT22;2619;47.868;11.892;2022-11-15T15:37:26;8.00;99.90
5200;DHT22;2619;47.868;11.892;2022-11-15T15:39:56;7.90;99.90
5200;DHT22;2619;47.868;11.892;2022-11-15T15:42:22;7.90;99.90
5200;DHT22;2619;47.868;11.892;2022-11-15T15:44:51;7.90;99.90
5200;DHT22;2619;47.868;11.892;2022-11-15T15:47:22;7.90;99.90
5200;DHT22;2619;47.868;11.892;2022-11-15T15:49:50;7.90;99.90
5200;DHT22;2619;47.868;11.892;2022-11-15T15:52:16;7.80;99.90
5200;DHT22;2619;47.868;11.892;2022-11-15T15:54:42;7.60;99.90
5200;DHT22;2619;47.868;11.892;2022-11-15T15:57:10;7.40;99.90
5200;DHT22;2619;47.868;11.892;2022-11-15T15:59:37;7.20;99.90
5200;DHT22;2619;47.868;11.892;2022-11-15T16:02:03;7.00;99.90
5200;DHT22;2619;47.868;11.892;2022-11-15T16:04:28;6.90;99.90
5200;DHT22;2619;47.868;11.892;2022-11-15T16:06:58;6.90;99.90
5200;DHT22;2619;47.868;11.892;2022-11-15T16:09:24;6.80;99.90
5200;DHT22;2619;47.868;11.892;2022-11-15T16:12:10;6.60;99.90
5200;DHT22;2619;47.868;11.892;2022-11-15T16:14:35;6.50;99.90
5200;DHT22;2619;47.868;11.892;2022-11-15T16:17:01;6.40;99.90
5200;DHT22;2619;47.868;11.892;2022-11-15T16:19:27;6.30;99.90
5200;DHT22;2619;47.868;11.892;2022-11-15T16:21:52;6.20;99.90
5200;DHT22;2619;47.868;11.892;2022-11-15T16:24:19;6.10;99.90
5200;DHT22;2619;47.868;11.892;2022-11-15T16:26:45;6.00;99.90
5200;DHT22;2619;47.868;11.892;2022-11-15T16:29:12;6.00;99.90
5200;DHT22;2619;47.868;11.892;2022-11-15T16:31:37;5.80;99.90
5200;DHT22;2619;47.868;11.892;2022-11-15T16:34:03;5.80;99.90
5200;DHT22;2619;47.868;11.892;2022-11-15T16:36:32;5.70;99.90
5200;DHT22;2619;47.868;11.892;2022-11-15T16:38:58;5.60;99.90
5200;DHT22;2619;47.868;11.892;2022-11-15T16:41:24;5.40;99.90
5200;DHT22;2619;47.868;11.892;2022-11-15T16:43:50;5.30;99.90
5200;DHT22;2619;47.868;11.892;2022-11-15T16:46:23;5.20;99.90
5200;DHT22;2619;47.868;11.892;2022-11-15T16:48:50;5.30;99.90
5200;DHT22;2619;47.868;11.892;2022-11-15T16:51:16;5.30;99.90
5200;DHT22;2619;47.868;11.892;2022-11-15T16:53:42;5.40;99.90
5200;DHT22;2619;47.868;11.892;2022-11-15T16:56:26;5.30;99.90
5200;DHT22;2619;47.868;11.892;2022-11-15T16:58:52;5.30;99.90
5200;DHT22;2619;47.868;11.892;2022-11-15T17:01:22;5.20;99.90
5200;DHT22;2619;47.868;11.892;2022-11-15T17:03:48;5.00;99.90
5200;DHT22;2619;47.868;11.892;2022-11-15T17:06:14;4.90;99.90
5200;DHT22;2619;47.868;11.892;2022-11-15T17:08:40;4.90;99.90
5200;DHT22;2619;47.868;11.892;2022-11-15T17:11:07;5.00;99.90
5200;DHT22;2619;47.868;11.892;2022-11-15T17:13:33;5.00;99.90
5200;DHT22;2619;47.868;11.892;2022-11-15T17:16:25;5.20;99.90
5200;DHT22;2619;47.868;11.892;2022-11-15T17:18:51;5.30;99.90
5200;DHT22;2619;47.868;11.892;2022-11-15T17:21:18;5.40;99.90
5200;DHT22;2619;47.868;11.892;2022-11-15T17:23:45;5.40;99.90
5200;DHT22;2619;47.868;11.892;2022-11-15T17:26:12;5.40;99.90
5200;DHT22;2619;47.868;11.892;2022-11-15T17:28:39;5.40;99.90
5200;DHT22;2619;47.868;11.892;2022-11-15T17:31:09;5.50;99.90
5200;DHT22;2619;47.868;11.892;2022-11-15T17:33:35;5.40;99.90
5200;DHT22;2619;47.868;11.892;2022-11-15T17:36:03;5.40;99.90
5200;DHT22;2619;47.868;11.892;2022-11-15T17:38:29;5.40;99.90
5200;DHT22;2619;47.868;11.892;2022-11-15T17:41:12;5.50;99.90
5200;DHT22;2619;47.868;11.892;2022-11-15T17:43:38;5.40;99.90
5200;DHT22;2619;47.868;11.892;2022-11-15T17:46:13;5.50;99.90
5200;DHT22;2619;47.868;11.892;2022-11-15T17:48:39;5.60;99.90
5200;DHT22;2619;47.868;11.892;2022-11-15T17:51:07;5.60;99.90
5200;DHT22;2619;47.868;11.892;2022-11-15T17:53:36;5.60;99.90
5200;DHT22;2619;47.868;11.892;2022-11-15T17:56:09;5.50;99.90
5200;DHT22;2619;47.868;11.892;2022-11-15T17:58:36;5.40;99.90
5200;DHT22;2619;47.868;11.892;2022-11-15T18:01:06;5.30;99.90
5200;DHT22;2619;47.868;11.892;2022-11-15T18:04:13;5.20;99.90